Middlebourne, West Virginia
Current Conditions -  °F | °C
As of 11:53 AM on Tuesday 21 Oct 2014 (Local Time) from KPKB Reporting Station
Haze Haze  
Wind Chill: 52°   Ceiling: 800
Heat Index: 52°   Visibility: 6mi
Dew Point: 48°   Wind: 9mph
Humidity: 86%   Direction: 280°W
Pressure: 29.95"   Gusts: NA
Location:  39.49°N, 80.9°W
Report Text: KPKB 211553Z 28008KT 6SM BR OVC008 11/09 A2995 RMK AO2 SLP144 T01110089
Loading
Personal Weather Stations






























Interactive Weather Map
Tropical Storm Tracking
New forecast layout! Learn more

10-Day Weather Forecast

Advertisements
Track Severe Weather on mobile